Terminal Aerodrome Forecast
Issued by NWS Sioux Falls, SD

Home | Current Version | Previous Version | Text Only | Print | Product List | Glossary On
Versions: 1 2 3 4 5 6 7 8 9 10 11 12 13 14 15 16 17 18 19 20 21 22 23
000
FTUS43 KFSD 290820 AAA
TAFFSD
TAF AMD
KFSD 290820Z 2908/3006 03008KT P6SM BKN010
      TEMPO 2910/2914 BKN008
     FM291500 05007KT P6SM OVC015
     FM291900 08010KT P6SM BKN035=

USA.gov is the U.S. government's official web portal to all federal, state and local government web resources and services.